createdAt,value
2023-04-23T00:00:17.069Z,55.33
2023-04-23T00:02:47.164Z,55.13
2023-04-23T00:05:16.931Z,49.30
2023-04-23T00:07:46.150Z,53.47
2023-04-23T00:10:15.282Z,61.73
2023-04-23T00:12:44.573Z,54.03
2023-04-23T00:15:16.790Z,59.47
2023-04-23T00:17:45.460Z,58.87
2023-04-23T00:20:14.113Z,57.17
2023-04-23T00:22:42.879Z,57.83
2023-04-23T00:25:11.879Z,57.33
2023-04-23T00:27:40.890Z,52.17
2023-04-23T00:30:10.717Z,58.63
2023-04-23T00:32:41.199Z,56.40
2023-04-23T00:35:10.335Z,53.53
2023-04-23T00:37:39.006Z,55.17
2023-04-23T00:40:09.372Z,52.73
2023-04-23T00:42:40.298Z,56.57
2023-04-23T00:45:10.031Z,57.30
2023-04-23T00:47:38.694Z,56.07
2023-04-23T00:50:10.216Z,56.73
2023-04-23T00:52:40.880Z,55.77
2023-04-23T00:55:10.533Z,53.10
2023-04-23T00:57:40.219Z,60.23
2023-04-23T01:00:10.117Z,58.33
2023-04-23T01:02:39.601Z,60.07
2023-04-23T01:05:12.197Z,64.30
2023-04-23T01:07:41.043Z,62.97
2023-04-23T01:10:11.168Z,62.90
2023-04-23T01:12:40.179Z,68.23
2023-04-23T01:15:10.263Z,69.63
2023-04-23T01:17:39.028Z,68.93
2023-04-23T01:20:10.801Z,68.37
2023-04-23T01:22:41.116Z,72.23
2023-04-23T01:25:10.823Z,67.20
2023-04-23T01:27:40.538Z,74.67
2023-04-23T01:30:11.153Z,77.63
2023-04-23T01:32:41.718Z,78.40
2023-04-23T01:35:13.312Z,78.23
2023-04-23T01:37:44.957Z,76.73
2023-04-23T01:40:14.126Z,73.67
2023-04-23T01:42:43.336Z,69.87
2023-04-23T01:45:12.619Z,72.90
2023-04-23T01:47:42.177Z,70.07
2023-04-23T01:50:11.245Z,69.23
2023-04-23T01:52:40.512Z,68.73
2023-04-23T01:55:11.252Z,67.10
2023-04-23T01:57:40.100Z,67.90
2023-04-23T02:00:11.556Z,68.10
2023-04-23T02:02:42.194Z,70.70
2023-04-23T02:05:13.763Z,66.97
2023-04-23T02:07:42.780Z,68.03
2023-04-23T02:10:13.998Z,70.70
2023-04-23T02:12:42.647Z,71.10
2023-04-23T02:15:12.875Z,73.37
2023-04-23T02:17:41.896Z,73.77
2023-04-23T02:20:11.260Z,79.67
2023-04-23T02:22:41.467Z,74.50
2023-04-23T02:25:10.871Z,73.60
2023-04-23T02:27:40.849Z,75.60
2023-04-23T02:30:11.776Z,69.87
2023-04-23T02:32:41.905Z,67.70
2023-04-23T02:35:11.258Z,67.33
2023-04-23T02:37:39.835Z,68.53
2023-04-23T02:40:09.717Z,78.40
2023-04-23T02:42:38.397Z,85.90
2023-04-23T02:45:10.164Z,83.93
2023-04-23T02:47:39.599Z,83.10
2023-04-23T02:50:09.164Z,82.33
2023-04-23T02:52:37.773Z,81.70
2023-04-23T02:55:07.319Z,81.97
2023-04-23T02:57:35.974Z,81.13
2023-04-23T03:00:06.549Z,76.83
2023-04-23T03:02:37.084Z,78.07
2023-04-23T03:05:07.434Z,79.83
2023-04-23T03:07:35.931Z,81.90
2023-04-23T03:10:04.655Z,77.00
2023-04-23T03:12:33.195Z,72.87
2023-04-23T03:15:01.671Z,76.30
2023-04-23T03:17:30.619Z,77.73
2023-04-23T03:20:01.001Z,79.23
2023-04-23T03:22:29.620Z,83.93
2023-04-23T03:24:58.284Z,87.93
2023-04-23T03:27:27.171Z,85.90
2023-04-23T03:29:55.741Z,90.67
2023-04-23T03:32:24.333Z,96.67
2023-04-23T03:34:52.857Z,96.63
2023-04-23T03:37:23.117Z,94.10
2023-04-23T03:39:51.676Z,96.97
2023-04-23T03:42:20.256Z,96.07
2023-04-23T03:44:48.774Z,96.97
2023-04-23T03:47:17.652Z,101.73
2023-04-23T03:49:46.385Z,101.40
2023-04-23T03:52:15.036Z,93.77
2023-04-23T03:54:45.083Z,86.53
2023-04-23T03:57:13.747Z,86.70
2023-04-23T03:59:42.285Z,78.23
2023-04-23T04:02:11.704Z,79.63
2023-04-23T04:04:40.672Z,80.13
2023-04-23T04:07:12.219Z,77.67
2023-04-23T04:09:40.940Z,71.20
2023-04-23T04:12:12.400Z,68.27
2023-04-23T04:14:41.231Z,76.03
2023-04-23T04:17:09.937Z,76.57
2023-04-23T04:19:38.824Z,77.67
2023-04-23T04:22:07.399Z,76.03
2023-04-23T04:24:35.935Z,83.63
2023-04-23T04:27:04.907Z,76.57
2023-04-23T04:29:35.410Z,72.87
2023-04-23T04:32:05.420Z,74.67
2023-04-23T04:34:34.282Z,74.67
2023-04-23T04:37:02.918Z,71.70
2023-04-23T04:39:31.433Z,70.07
2023-04-23T04:42:00.086Z,71.87
2023-04-23T04:44:28.968Z,66.67
2023-04-23T04:46:59.149Z,66.10
2023-04-23T04:49:27.804Z,71.00
2023-04-23T04:51:56.360Z,60.30
2023-04-23T04:54:24.920Z,68.07
2023-04-23T04:56:53.504Z,58.80
2023-04-23T04:59:22.406Z,71.10
2023-04-23T05:01:51.032Z,68.80
2023-04-23T05:04:21.167Z,65.67
2023-04-23T05:06:49.776Z,68.60
2023-04-23T05:09:18.850Z,66.23
2023-04-23T05:11:47.454Z,70.40
2023-04-23T05:14:16.120Z,63.97
2023-04-23T05:16:44.930Z,62.60
2023-04-23T05:19:13.811Z,64.47
2023-04-23T05:21:43.850Z,62.80
2023-04-23T05:24:12.436Z,58.87
2023-04-23T05:26:41.305Z,62.03
2023-04-23T05:29:10.103Z,64.37
2023-04-23T05:31:38.949Z,57.20
2023-04-23T05:34:07.546Z,60.87
2023-04-23T05:36:36.642Z,59.37
2023-04-23T05:39:06.956Z,55.93
2023-04-23T05:41:35.967Z,50.33
2023-04-23T05:44:04.541Z,48.57
2023-04-23T05:46:33.174Z,45.63
2023-04-23T05:49:01.696Z,39.60
2023-04-23T05:51:30.266Z,37.57
2023-04-23T05:53:59.215Z,35.20
2023-04-23T05:56:29.167Z,30.17
2023-04-23T05:58:58.144Z,29.87
2023-04-23T06:01:26.965Z,26.97
2023-04-23T06:03:55.778Z,25.97
2023-04-23T06:06:24.651Z,24.03
2023-04-23T06:08:53.242Z,23.73
2023-04-23T06:11:22.694Z,21.13
2023-04-23T06:13:52.614Z,21.67
2023-04-23T06:16:21.221Z,20.13
2023-04-23T06:18:49.816Z,20.53
2023-04-23T06:21:19.777Z,20.33
2023-04-23T06:23:48.461Z,19.47
2023-04-23T06:26:17.175Z,19.50
2023-04-23T06:28:47.035Z,18.07
2023-04-23T06:31:17.488Z,18.53
2023-04-23T06:33:46.175Z,19.33
2023-04-23T06:36:14.965Z,17.63
2023-04-23T06:38:44.812Z,17.93
2023-04-23T06:41:14.090Z,17.73
2023-04-23T06:43:43.256Z,18.00
2023-04-23T06:46:11.745Z,17.67
2023-04-23T06:48:42.081Z,17.73
2023-04-23T06:51:10.973Z,18.40
2023-04-23T06:53:40.194Z,16.27
2023-04-23T06:56:09.089Z,17.90
2023-04-23T06:58:37.777Z,17.90
2023-04-23T07:01:07.761Z,16.50
2023-04-23T07:03:37.186Z,15.83
2023-04-23T07:06:07.716Z,15.57
2023-04-23T07:08:36.376Z,15.40
2023-04-23T07:11:05.434Z,15.40
2023-04-23T07:13:34.508Z,15.40
2023-04-23T07:16:03.088Z,15.70
2023-04-23T07:18:31.665Z,14.23
2023-04-23T07:21:00.423Z,13.30
2023-04-23T07:23:30.775Z,13.87
2023-04-23T07:25:59.558Z,13.00
2023-04-23T07:28:28.685Z,11.83
2023-04-23T07:30:57.872Z,12.97
2023-04-23T07:33:27.074Z,11.53
2023-04-23T07:35:55.856Z,12.90
2023-04-23T07:38:24.545Z,12.70
2023-04-23T07:40:54.679Z,13.07
2023-04-23T07:43:24.245Z,10.30
2023-04-23T07:45:53.039Z,10.63
2023-04-23T07:48:22.060Z,11.10
2023-04-23T07:50:50.899Z,9.30
2023-04-23T07:53:19.674Z,9.60
2023-04-23T07:55:48.340Z,8.83
2023-04-23T07:58:18.693Z,9.53
2023-04-23T08:00:47.298Z,8.80
2023-04-23T08:03:16.355Z,9.27
2023-04-23T08:05:45.415Z,8.10
2023-04-23T08:08:14.951Z,8.33
2023-04-23T08:10:43.953Z,7.63
2023-04-23T08:13:12.919Z,7.80
2023-04-23T08:15:43.380Z,8.17
2023-04-23T08:18:12.120Z,7.07
2023-04-23T08:20:40.996Z,10.30
2023-04-23T08:23:09.798Z,7.20
2023-04-23T08:25:38.435Z,8.67
2023-04-23T08:28:07.700Z,8.00
2023-04-23T08:30:36.416Z,8.17
2023-04-23T08:33:06.950Z,7.37
2023-04-23T08:35:37.559Z,8.30
2023-04-23T08:38:06.762Z,6.10
2023-04-23T08:40:39.018Z,8.23
2023-04-23T08:43:14.845Z,8.20
2023-04-23T08:45:47.935Z,5.60
2023-04-23T08:48:18.174Z,6.73
2023-04-23T08:50:53.676Z,6.27
2023-04-23T08:53:28.681Z,6.60
2023-04-23T08:55:58.854Z,8.53
2023-04-23T08:58:28.360Z,6.33
2023-04-23T09:00:58.310Z,8.67
2023-04-23T09:03:30.711Z,9.90
2023-04-23T09:06:00.949Z,5.17
2023-04-23T09:08:30.927Z,9.30
2023-04-23T09:11:02.202Z,7.80
2023-04-23T09:13:33.155Z,6.23
2023-04-23T09:16:02.773Z,6.17
2023-04-23T09:18:34.313Z,7.67
2023-04-23T09:21:04.507Z,6.33
2023-04-23T09:23:34.841Z,5.47
2023-04-23T09:26:08.213Z,5.40
2023-04-23T09:28:37.763Z,6.07
2023-04-23T09:31:07.580Z,8.73
2023-04-23T09:33:38.721Z,4.77
2023-04-23T09:36:11.408Z,5.80
2023-04-23T09:38:43.016Z,5.40
2023-04-23T09:41:25.595Z,6.40
2023-04-23T09:43:56.081Z,5.77
2023-04-23T09:46:38.422Z,5.13
2023-04-23T09:49:12.734Z,5.10
2023-04-23T09:51:43.083Z,4.73
2023-04-23T09:54:16.682Z,4.93
2023-04-23T09:56:46.118Z,6.57
2023-04-23T09:59:35.547Z,3.90
2023-04-23T10:02:12.566Z,5.27
2023-04-23T10:04:47.001Z,5.33
2023-04-23T10:07:20.201Z,6.43
2023-04-23T10:09:49.737Z,4.83
2023-04-23T10:14:54.059Z,5.13
2023-04-23T10:17:23.179Z,5.03
2023-04-23T10:19:54.472Z,5.53
2023-04-23T10:22:24.531Z,4.27
2023-04-23T10:24:58.424Z,5.33
2023-04-23T10:27:48.363Z,6.30
2023-04-23T10:30:20.413Z,4.07
2023-04-23T10:32:51.121Z,6.93
2023-04-23T10:35:21.490Z,5.83
2023-04-23T10:37:51.272Z,4.20
2023-04-23T10:40:26.811Z,4.40
2023-04-23T10:42:55.989Z,3.20
2023-04-23T10:45:25.896Z,4.70
2023-04-23T10:47:56.689Z,4.70
2023-04-23T10:50:28.783Z,3.60
2023-04-23T10:52:58.862Z,4.17
2023-04-23T10:55:29.344Z,4.73
2023-04-23T10:58:03.240Z,3.53
2023-04-23T11:00:46.091Z,3.00
2023-04-23T11:03:43.032Z,3.23
2023-04-23T11:06:20.558Z,3.70
2023-04-23T11:08:56.962Z,3.70
2023-04-23T11:11:40.861Z,4.10
2023-04-23T11:14:15.655Z,6.23
2023-04-23T11:16:44.620Z,5.53
2023-04-23T11:19:18.313Z,5.23
2023-04-23T11:22:06.821Z,3.13
2023-04-23T11:24:42.453Z,3.27
2023-04-23T11:27:13.511Z,3.60
2023-04-23T11:29:45.139Z,3.33
2023-04-23T11:32:15.275Z,3.47
2023-04-23T11:34:45.609Z,3.70
2023-04-23T11:37:17.495Z,2.55
2023-04-23T11:39:47.777Z,2.75
2023-04-23T11:42:20.375Z,2.10
2023-04-23T11:44:49.686Z,2.65
2023-04-23T11:47:19.204Z,3.90
2023-04-23T11:49:50.180Z,2.35
2023-04-23T11:52:20.597Z,3.42
2023-04-23T11:54:49.698Z,4.15
2023-04-23T11:57:18.807Z,3.17
2023-04-23T11:59:47.489Z,6.43
2023-04-23T12:02:16.894Z,6.32
2023-04-23T12:04:46.137Z,2.15
2023-04-23T12:07:25.885Z,3.53
2023-04-23T12:10:01.809Z,2.80
2023-04-23T12:12:35.831Z,1.93
2023-04-23T12:15:08.705Z,1.70
2023-04-23T12:17:37.506Z,2.00
2023-04-23T12:20:07.708Z,2.70
2023-04-23T12:22:36.610Z,2.83
2023-04-23T12:25:09.713Z,3.20
2023-04-23T12:27:42.832Z,4.60
2023-04-23T12:30:12.963Z,5.83
2023-04-23T12:32:42.627Z,2.37
2023-04-23T12:35:12.418Z,1.80
2023-04-23T12:37:41.268Z,2.33
2023-04-23T12:40:12.866Z,2.00
2023-04-23T12:42:42.359Z,1.53
2023-04-23T12:45:12.162Z,3.27
2023-04-23T12:47:41.283Z,2.20
2023-04-23T12:50:10.755Z,1.93
2023-04-23T12:52:39.579Z,2.23
2023-04-23T12:55:09.148Z,1.37
2023-04-23T12:57:39.471Z,2.60
2023-04-23T13:00:09.714Z,3.30
2023-04-23T13:02:38.572Z,2.83
2023-04-23T13:05:08.258Z,4.30
2023-04-23T13:07:37.855Z,3.77
2023-04-23T13:10:07.520Z,3.30
2023-04-23T13:12:36.492Z,3.63
2023-04-23T13:15:08.583Z,4.18
2023-04-23T13:17:39.425Z,2.60
2023-04-23T13:20:11.086Z,3.03
2023-04-23T13:22:40.136Z,3.28
2023-04-23T13:25:10.564Z,3.45
2023-04-23T13:27:41.030Z,3.13
2023-04-23T13:30:12.334Z,4.13
2023-04-23T13:32:41.786Z,3.33
2023-04-23T13:35:11.761Z,2.38
2023-04-23T13:37:41.807Z,2.28
2023-04-23T13:40:11.453Z,2.17
2023-04-23T13:42:40.278Z,3.58
2023-04-23T13:45:14.128Z,1.58
2023-04-23T13:47:43.664Z,1.90
2023-04-23T13:50:13.024Z,2.22
2023-04-23T13:52:42.075Z,1.63
2023-04-23T13:55:11.493Z,1.35
2023-04-23T13:57:40.389Z,5.60
2023-04-23T14:00:10.428Z,1.98
2023-04-23T14:02:42.018Z,4.28
2023-04-23T14:05:11.486Z,6.07
2023-04-23T14:07:40.372Z,3.60
2023-04-23T14:10:10.369Z,2.80
2023-04-23T14:12:39.625Z,2.83
2023-04-23T14:15:09.789Z,2.90
2023-04-23T14:17:43.103Z,2.35
2023-04-23T14:20:13.040Z,2.97
2023-04-23T14:22:43.807Z,1.40
2023-04-23T14:25:17.616Z,2.78
2023-04-23T14:27:48.289Z,2.47
2023-04-23T14:30:20.463Z,3.10
2023-04-23T14:32:51.242Z,3.05
2023-04-23T14:35:29.263Z,2.10
2023-04-23T14:38:04.727Z,2.30
2023-04-23T14:40:34.124Z,2.78
2023-04-23T14:43:14.490Z,4.20
2023-04-23T14:45:44.809Z,3.85
2023-04-23T14:48:15.035Z,4.15
2023-04-23T14:50:43.920Z,2.25
2023-04-23T14:53:13.101Z,4.07
2023-04-23T14:55:43.535Z,3.05
2023-04-23T14:58:12.472Z,1.95
2023-04-23T15:00:42.984Z,5.30
2023-04-23T15:03:12.524Z,7.97
2023-04-23T15:05:43.250Z,3.45
2023-04-23T15:08:13.212Z,2.75
2023-04-23T15:10:42.507Z,3.20
2023-04-23T15:13:41.152Z,5.00
2023-04-23T15:16:29.079Z,3.55
2023-04-23T15:19:10.393Z,6.03
2023-04-23T15:21:43.327Z,1.63
2023-04-23T15:24:15.052Z,3.38
2023-04-23T15:26:44.018Z,2.60
2023-04-23T15:29:13.866Z,1.00
2023-04-23T15:31:43.375Z,2.08
2023-04-23T15:34:12.577Z,3.63
2023-04-23T15:36:42.809Z,3.08
2023-04-23T15:39:11.711Z,2.97
2023-04-23T15:41:41.359Z,2.00
2023-04-23T15:44:12.853Z,4.45
2023-04-23T15:46:41.844Z,4.05
2023-04-23T15:49:11.151Z,5.10
2023-04-23T15:51:41.668Z,4.47
2023-04-23T15:54:11.062Z,6.80
2023-04-23T15:56:39.999Z,1.80
2023-04-23T15:59:09.360Z,4.10
2023-04-23T16:01:39.717Z,3.50
2023-04-23T16:04:11.648Z,2.43
2023-04-23T16:06:42.506Z,7.90
2023-04-23T16:09:11.575Z,10.37
2023-04-23T16:11:41.034Z,6.33
2023-04-23T16:14:12.643Z,3.37
2023-04-23T16:16:41.740Z,4.87
2023-04-23T16:19:12.027Z,3.73
2023-04-23T16:21:42.477Z,5.37
2023-04-23T16:24:11.847Z,2.63
2023-04-23T16:26:41.047Z,3.80
2023-04-23T16:29:21.474Z,3.93
2023-04-23T16:31:51.835Z,4.13
2023-04-23T16:34:20.874Z,2.47
2023-04-23T16:36:51.849Z,2.23
2023-04-23T16:39:20.760Z,3.90
2023-04-23T16:41:49.795Z,3.60
2023-04-23T16:44:19.541Z,3.20
2023-04-23T16:46:48.680Z,3.10
2023-04-23T16:49:17.696Z,2.20
2023-04-23T16:51:47.176Z,2.40
2023-04-23T16:54:18.140Z,5.20
2023-04-23T16:56:47.286Z,4.57
2023-04-23T16:59:16.843Z,3.90
2023-04-23T17:01:46.637Z,3.63
2023-04-23T17:04:16.161Z,3.80
2023-04-23T17:06:45.449Z,4.40
2023-04-23T17:09:14.781Z,3.10
2023-04-23T17:11:45.763Z,3.73
2023-04-23T17:14:14.792Z,6.43
2023-04-23T17:16:44.829Z,7.27
2023-04-23T17:19:14.074Z,7.23
2023-04-23T17:21:43.477Z,9.00
2023-04-23T17:24:12.908Z,6.03
2023-04-23T17:26:42.677Z,5.20
2023-04-23T17:29:13.736Z,6.20
2023-04-23T17:31:43.066Z,5.57
2023-04-23T17:34:12.645Z,5.13
2023-04-23T17:36:41.955Z,5.60
2023-04-23T17:39:11.130Z,6.60
2023-04-23T17:41:41.437Z,7.37
2023-04-23T17:44:12.159Z,6.83
2023-04-23T17:46:41.486Z,7.70
2023-04-23T17:49:10.806Z,7.70
2023-04-23T17:51:40.236Z,8.50
2023-04-23T17:54:09.602Z,15.97
2023-04-23T17:56:39.632Z,8.33
2023-04-23T17:59:09.459Z,6.57
2023-04-23T18:01:40.090Z,7.67
2023-04-23T18:04:10.966Z,11.97
2023-04-23T18:06:40.134Z,7.53
2023-04-23T18:09:09.420Z,7.30
2023-04-23T18:11:40.138Z,6.13
2023-04-23T18:14:09.598Z,7.73
2023-04-23T18:16:41.122Z,6.83
2023-04-23T18:19:10.200Z,5.87
2023-04-23T18:21:40.144Z,7.63
2023-04-23T18:24:09.559Z,6.60
2023-04-23T18:26:38.489Z,6.30
2023-04-23T18:29:07.634Z,7.97
2023-04-23T18:31:37.081Z,8.63
2023-04-23T18:34:11.911Z,8.47
2023-04-23T18:36:44.355Z,10.87
2023-04-23T18:39:13.849Z,9.73
2023-04-23T18:41:43.409Z,10.47
2023-04-23T18:44:13.562Z,11.57
2023-04-23T18:46:42.692Z,9.83
2023-04-23T18:49:40.180Z,14.20
2023-04-23T18:52:09.524Z,10.97
2023-04-23T18:54:39.089Z,9.87
2023-04-23T18:57:08.189Z,10.40
2023-04-23T18:59:38.577Z,10.57
2023-04-23T19:02:07.927Z,7.50
2023-04-23T19:04:38.389Z,5.67
2023-04-23T19:07:07.329Z,6.07
2023-04-23T19:09:36.246Z,7.90
2023-04-23T19:12:05.818Z,7.77
2023-04-23T19:14:34.760Z,6.77
2023-04-23T19:17:03.916Z,6.27
2023-04-23T19:19:35.529Z,7.60
2023-04-23T19:22:05.862Z,7.53
2023-04-23T19:24:34.746Z,7.17
2023-04-23T19:27:03.706Z,6.30
2023-04-23T19:29:32.556Z,8.33
2023-04-23T19:32:01.788Z,7.23
2023-04-23T19:34:31.114Z,7.73
2023-04-23T19:37:01.808Z,7.50
2023-04-23T19:39:32.275Z,6.87
2023-04-23T19:42:02.936Z,7.70
2023-04-23T19:44:31.971Z,7.83
2023-04-23T19:47:01.071Z,6.73
2023-04-23T19:49:30.418Z,5.50
2023-04-23T19:52:00.553Z,7.40
2023-04-23T19:54:29.565Z,4.90
2023-04-23T19:56:59.866Z,7.67
2023-04-23T19:59:28.861Z,7.00
2023-04-23T20:01:58.118Z,6.10
2023-04-23T20:04:27.551Z,7.07
2023-04-23T20:06:56.478Z,5.97
2023-04-23T20:09:25.802Z,5.50
2023-04-23T20:11:55.038Z,5.53
2023-04-23T20:14:26.162Z,5.37
2023-04-23T20:16:55.443Z,6.47
2023-04-23T20:19:25.957Z,6.13
2023-04-23T20:21:55.255Z,7.50
2023-04-23T20:24:24.394Z,7.80
2023-04-23T20:26:53.589Z,7.57
2023-04-23T20:29:22.744Z,3.33
2023-04-23T20:31:53.515Z,5.53
2023-04-23T20:34:22.613Z,6.13
2023-04-23T20:36:51.974Z,11.13
2023-04-23T20:39:24.503Z,9.13
2023-04-23T20:41:55.230Z,4.20
2023-04-23T20:44:24.182Z,8.03
2023-04-23T20:46:57.965Z,9.37
2023-04-23T20:49:27.153Z,7.80
2023-04-23T20:51:56.874Z,7.30
2023-04-23T20:54:26.098Z,4.73
2023-04-23T20:56:54.896Z,5.93
2023-04-23T20:59:24.079Z,3.77
2023-04-23T21:01:54.823Z,4.67
2023-04-23T21:04:24.153Z,6.00
2023-04-23T21:06:53.042Z,4.07
2023-04-23T21:09:21.888Z,2.43
2023-04-23T21:11:51.270Z,1.83
2023-04-23T21:14:20.505Z,1.43
2023-04-23T21:16:49.196Z,1.73
2023-04-23T21:19:19.565Z,1.87
2023-04-23T21:21:48.308Z,1.73
2023-04-23T21:24:17.064Z,3.33
2023-04-23T21:26:46.803Z,4.00
2023-04-23T21:29:16.706Z,2.37
2023-04-23T21:31:48.000Z,2.37
2023-04-23T21:34:19.747Z,2.47
2023-04-23T21:36:48.691Z,3.03
2023-04-23T21:39:17.756Z,3.63
2023-04-23T21:41:47.319Z,1.63
2023-04-23T21:44:16.098Z,2.50
2023-04-23T21:46:46.002Z,1.97
2023-04-23T21:49:15.121Z,2.67
2023-04-23T21:51:45.604Z,3.50
2023-04-23T21:54:15.178Z,3.97
2023-04-23T21:56:44.050Z,3.83
2023-04-23T21:59:13.135Z,3.27
2023-04-23T22:01:41.848Z,3.77
2023-04-23T22:04:10.789Z,3.10
2023-04-23T22:06:39.726Z,2.90
2023-04-23T22:09:10.415Z,1.93
2023-04-23T22:11:39.058Z,3.17
2023-04-23T22:14:09.079Z,3.20
2023-04-23T22:16:40.864Z,3.10
2023-04-23T22:19:10.495Z,4.47
2023-04-23T22:21:39.135Z,2.10
2023-04-23T22:24:09.950Z,1.87
2023-04-23T22:26:41.240Z,6.13
2023-04-23T22:29:10.289Z,2.10
2023-04-23T22:31:38.990Z,3.87
2023-04-23T22:34:08.024Z,1.80
2023-04-23T22:36:36.680Z,2.30
2023-04-23T22:39:05.980Z,2.00
2023-04-23T22:41:39.723Z,3.10
2023-04-23T22:44:09.440Z,3.00
2023-04-23T22:46:39.059Z,3.53
2023-04-23T22:49:11.288Z,2.97
2023-04-23T22:51:40.013Z,5.27
2023-04-23T22:54:09.032Z,4.60
2023-04-23T22:56:39.188Z,3.53
2023-04-23T22:59:08.145Z,2.80
2023-04-23T23:01:36.799Z,4.97
2023-04-23T23:04:05.446Z,7.60
2023-04-23T23:06:34.245Z,4.43
2023-04-23T23:09:02.890Z,6.43
2023-04-23T23:11:31.752Z,6.53
2023-04-23T23:14:02.323Z,3.70
2023-04-23T23:16:31.851Z,3.60
2023-04-23T23:19:00.619Z,4.70
2023-04-23T23:21:29.369Z,6.83
2023-04-23T23:23:58.009Z,9.27
2023-04-23T23:26:26.773Z,8.97
2023-04-23T23:28:55.836Z,7.10
2023-04-23T23:31:26.413Z,4.23
2023-04-23T23:33:55.118Z,9.10
2023-04-23T23:36:23.733Z,8.27
2023-04-23T23:38:53.071Z,4.70
2023-04-23T23:41:21.625Z,6.57
2023-04-23T23:43:50.214Z,4.77
2023-04-23T23:46:20.080Z,6.30
2023-04-23T23:48:50.547Z,7.20
2023-04-23T23:51:19.122Z,6.53
2023-04-23T23:53:47.786Z,9.13
2023-04-23T23:56:16.804Z,8.07
2023-04-23T23:58:45.452Z,7.30
